Svend Maersk — OYJS2 — position and weather

sailwx.info

Track history (hours):
 
Tides and Currents Weather Stations Pressure Air Temp Water Temp Dewpoint Dewpoint Depression Visibility Wind Speed Wind Dir Waves Ship Positions

Svend Maersk

Last reported at 2018-Apr-21 04:14 UTC. Time now 2018-Apr-22 14:42 UTC.
Position N 41°38' E 141°40'.

Type: Ship (hazmat cat A). MMSI: 219791000.

Date/timePositionNaut miles runAvg speedWind from/ knotsBaromVisibWave heightAir tempDewpointWater temp
2018-Apr-21 04:14N 41°38' E 141°40'517.7
2018-Apr-21 03:58N 41°38' E 141°33'817.9
2018-Apr-21 03:30N 41°38' E 141°23'816.7
2018-Apr-21 03:00N 41°38' E 141°11'917.3
2018-Apr-21 02:31N 41°38' E 140°60'918.0
2018-Apr-21 02:00N 41°37' E 140°48'816.9
2018-Apr-21 01:31N 41°32' E 140°39'918.0
2018-Apr-21 01:00N 41°28' E 140°28'918.0
2018-Apr-21 00:30N 41°23' E 140°18'54516.9
2018-Apr-19 16:10N 35°57' E 130°58'316.6
2018-Apr-19 15:58N 35°55' E 130°55'816.4
2018-Apr-19 15:30N 35°51' E 130°47'816.9
2018-Apr-19 15:00N 35°46' E 130°39'817.1
2018-Apr-19 14:30N 35°40' E 130°30'816.7
2018-Apr-19 14:00N 35°35' E 130°22'817.0
2018-Apr-19 13:31N 35°30' E 130°14'816.7
2018-Apr-19 13:00N 35°25' E 130°06'816.6
2018-Apr-19 12:30N 35°20' E 129°58'816.6
2018-Apr-19 12:00N 35°15' E 129°49'816.4
2018-Apr-19 11:30N 35°11' E 129°41'816.9
2018-Apr-19 11:00N 35°05' E 129°33'917.0
2018-Apr-19 10:30N 35°00' E 129°25'1117.4
2018-Apr-19 09:51N 34°54' E 129°13'816.1
2018-Apr-19 09:23N 34°51' E 129°05'617.1
2018-Apr-19 09:00N 34°51' E 128°57'815.9
2018-Apr-19 08:30N 34°56' E 128°49'611.9
2018-Apr-19 08:00N 35°02' E 128°47'3 7.0
2018-Apr-19 07:30N 35°04' E 128°49'0 0.0
2018-Apr-18 14:27N 35°05' E 128°50'0 1.0
2018-Apr-18 13:57N 35°04' E 128°49'4 7.3
2018-Apr-18 13:27N 35°01' E 128°48'510.7
2018-Apr-18 13:00N 34°56' E 128°49'3 6.3
2018-Apr-18 12:30N 34°53' E 128°50'713.2
2018-Apr-18 12:00N 34°47' E 128°49'1118.3
2018-Apr-18 11:24N 34°36' E 128°48'817.8
2018-Apr-18 10:57N 34°28' E 128°49'1018.0
2018-Apr-18 10:24N 34°18' E 128°47'818.2
2018-Apr-18 09:59N 34°11' E 128°43'1018.4
2018-Apr-18 09:27N 34°03' E 128°37'1115.5
2018-Apr-18 08:43N 33°55' E 128°27'418.7
2018-Apr-18 08:30N 33°58' E 128°25'918.0
2018-Apr-18 08:00N 33°57' E 128°14'1019.7
2018-Apr-18 07:30N 33°55' E 128°02'1712.0
2018-Apr-18 06:06N 33°49' E 127°43'0 1.9
2018-Apr-18 05:59N 33°49' E 127°43'37513.9
2018-Apr-17 02:54N 35°58' E 120°33'816.4
2018-Apr-17 02:24N 36°00' E 120°24'511.2
2018-Apr-17 01:59N 36°01' E 120°18'5 7.7
2018-Apr-17 01:23N 36°00' E 120°13'0 0.5
2018-Apr-17 00:53N 36°00' E 120°13'0 0.0
2018-Apr-16 23:47N 36°00' E 120°13'0 0.0
2018-Apr-16 23:30N 36°00' E 120°13'0 0.0
2018-Apr-16 22:56N 36°00' E 120°13'0 0.0
2018-Apr-16 22:14N 36°00' E 120°13'0 0.0
2018-Apr-16 21:56N 36°00' E 120°13'0 0.0
2018-Apr-16 20:51N 36°00' E 120°13'0 0.0
2018-Apr-16 19:23N 36°00' E 120°13'0 0.0
2018-Apr-16 18:50N 36°00' E 120°13'0 0.0
2018-Apr-16 18:17N 36°00' E 120°13'0 0.0
2018-Apr-16 16:50N 36°00' E 120°13'0 0.0
2018-Apr-16 15:17N 36°00' E 120°13'0 0.0
2018-Apr-16 14:09N 36°00' E 120°13'0 0.0
2018-Apr-16 13:47N 36°00' E 120°13'0 0.0
2018-Apr-16 13:29N 36°00' E 120°13'0 0.0
2018-Apr-16 11:23N 36°00' E 120°13'0 0.0
2018-Apr-16 10:29N 36°00' E 120°13'0 0.0
2018-Apr-16 09:53N 36°00' E 120°13'0 0.0
2018-Apr-16 09:29N 36°00' E 120°13'0 0.0
2018-Apr-16 08:50N 36°00' E 120°13'0 0.0
2018-Apr-16 08:17N 36°00' E 120°13'0 0.0
2018-Apr-16 07:48N 36°00' E 120°13'2 3.8
2018-Apr-16 07:16N 36°02' E 120°14'2 6.2
2018-Apr-16 07:00N 36°02' E 120°17'912.6
2018-Apr-16 06:16N 36°00' E 120°28'  
2018-Apr-13 08:27N 25°43' E 120°54'2018.1
2018-Apr-13 07:20N 25°29' E 120°37'13518.8
2018-Apr-13 00:08N 24°01' E 118°44'320.1
2018-Apr-12 23:58N 23°59' E 118°41'1220.3
2018-Apr-12 23:23N 23°52' E 118°30'820.3
2018-Apr-12 23:00N 23°48' E 118°23'1220.4
2018-Apr-12 22:25N 23°43' E 118°12'1020.4
2018-Apr-12 21:57N 23°38' E 118°02'2720.1
2018-Apr-12 20:35N 23°25' E 117°36'  
Track history (hours):
 
Tides and Currents Weather Stations Pressure Air Temp Water Temp Dewpoint Dewpoint Depression Visibility Wind Speed Wind Dir Waves Ship Positions

Svend Maersk

Last reported at 2018-Apr-21 04:14 UTC. Time now 2018-Apr-22 14:42 UTC.
Position N 41°38' E 141°40'.

Type: Ship (hazmat cat A). MMSI: 219791000.

Date/timePositionNaut miles runAvg speedWind from/ knotsBaromVisibWave heightAir tempDewpointWater temp
2018-Apr-21 04:14N 41°38' E 141°40'517.7
2018-Apr-21 03:58N 41°38' E 141°33'817.9
2018-Apr-21 03:30N 41°38' E 141°23'816.7
2018-Apr-21 03:00N 41°38' E 141°11'917.3
2018-Apr-21 02:31N 41°38' E 140°60'918.0
2018-Apr-21 02:00N 41°37' E 140°48'816.9
2018-Apr-21 01:31N 41°32' E 140°39'918.0
2018-Apr-21 01:00N 41°28' E 140°28'918.0
2018-Apr-21 00:30N 41°23' E 140°18'54516.9
2018-Apr-19 16:10N 35°57' E 130°58'316.6
2018-Apr-19 15:58N 35°55' E 130°55'816.4
2018-Apr-19 15:30N 35°51' E 130°47'816.9
2018-Apr-19 15:00N 35°46' E 130°39'817.1
2018-Apr-19 14:30N 35°40' E 130°30'816.7
2018-Apr-19 14:00N 35°35' E 130°22'817.0
2018-Apr-19 13:31N 35°30' E 130°14'816.7
2018-Apr-19 13:00N 35°25' E 130°06'816.6
2018-Apr-19 12:30N 35°20' E 129°58'816.6
2018-Apr-19 12:00N 35°15' E 129°49'816.4
2018-Apr-19 11:30N 35°11' E 129°41'816.9
2018-Apr-19 11:00N 35°05' E 129°33'917.0
2018-Apr-19 10:30N 35°00' E 129°25'1117.4
2018-Apr-19 09:51N 34°54' E 129°13'816.1
2018-Apr-19 09:23N 34°51' E 129°05'617.1
2018-Apr-19 09:00N 34°51' E 128°57'815.9
2018-Apr-19 08:30N 34°56' E 128°49'611.9
2018-Apr-19 08:00N 35°02' E 128°47'3 7.0
2018-Apr-19 07:30N 35°04' E 128°49'0 0.0
2018-Apr-18 14:27N 35°05' E 128°50'0 1.0
2018-Apr-18 13:57N 35°04' E 128°49'4 7.3
2018-Apr-18 13:27N 35°01' E 128°48'510.7
2018-Apr-18 13:00N 34°56' E 128°49'3 6.3
2018-Apr-18 12:30N 34°53' E 128°50'713.2
2018-Apr-18 12:00N 34°47' E 128°49'1118.3
2018-Apr-18 11:24N 34°36' E 128°48'817.8
2018-Apr-18 10:57N 34°28' E 128°49'1018.0
2018-Apr-18 10:24N 34°18' E 128°47'818.2
2018-Apr-18 09:59N 34°11' E 128°43'1018.4
2018-Apr-18 09:27N 34°03' E 128°37'1115.5
2018-Apr-18 08:43N 33°55' E 128°27'418.7
2018-Apr-18 08:30N 33°58' E 128°25'918.0
2018-Apr-18 08:00N 33°57' E 128°14'1019.7
2018-Apr-18 07:30N 33°55' E 128°02'1712.0
2018-Apr-18 06:06N 33°49' E 127°43'0 1.9
2018-Apr-18 05:59N 33°49' E 127°43'37513.9
2018-Apr-17 02:54N 35°58' E 120°33'816.4
2018-Apr-17 02:24N 36°00' E 120°24'511.2
2018-Apr-17 01:59N 36°01' E 120°18'5 7.7
2018-Apr-17 01:23N 36°00' E 120°13'0 0.5
2018-Apr-17 00:53N 36°00' E 120°13'0 0.0
2018-Apr-16 23:47N 36°00' E 120°13'0 0.0
2018-Apr-16 23:30N 36°00' E 120°13'0 0.0
2018-Apr-16 22:56N 36°00' E 120°13'0 0.0
2018-Apr-16 22:14N 36°00' E 120°13'0 0.0
2018-Apr-16 21:56N 36°00' E 120°13'0 0.0
2018-Apr-16 20:51N 36°00' E 120°13'0 0.0
2018-Apr-16 19:23N 36°00' E 120°13'0 0.0
2018-Apr-16 18:50N 36°00' E 120°13'0 0.0
2018-Apr-16 18:17N 36°00' E 120°13'0 0.0
2018-Apr-16 16:50N 36°00' E 120°13'0 0.0
2018-Apr-16 15:17N 36°00' E 120°13'0 0.0
2018-Apr-16 14:09N 36°00' E 120°13'0 0.0
2018-Apr-16 13:47N 36°00' E 120°13'0 0.0
2018-Apr-16 13:29N 36°00' E 120°13'0 0.0
2018-Apr-16 11:23N 36°00' E 120°13'0 0.0
2018-Apr-16 10:29N 36°00' E 120°13'0 0.0
2018-Apr-16 09:53N 36°00' E 120°13'0 0.0
2018-Apr-16 09:29N 36°00' E 120°13'0 0.0
2018-Apr-16 08:50N 36°00' E 120°13'0 0.0
2018-Apr-16 08:17N 36°00' E 120°13'0 0.0
2018-Apr-16 07:48N 36°00' E 120°13'2 3.8
2018-Apr-16 07:16N 36°02' E 120°14'2 6.2
2018-Apr-16 07:00N 36°02' E 120°17'912.6
2018-Apr-16 06:16N 36°00' E 120°28'  
2018-Apr-13 08:27N 25°43' E 120°54'2018.1
2018-Apr-13 07:20N 25°29' E 120°37'13518.8
2018-Apr-13 00:08N 24°01' E 118°44'320.1
2018-Apr-12 23:58N 23°59' E 118°41'1220.3
2018-Apr-12 23:23N 23°52' E 118°30'820.3
2018-Apr-12 23:00N 23°48' E 118°23'1220.4
2018-Apr-12 22:25N 23°43' E 118°12'1020.4
2018-Apr-12 21:57N 23°38' E 118°02'2720.1
2018-Apr-12 20:35N 23°25' E 117°36'  

Dump ship's entire track history